sensor_id;sensor_type;location;lat;lon;timestamp;P1;durP1;ratioP1;P2;durP2;ratioP2
83690;SDS011;73671;43.220;0.064;2023-12-28T00:01:18;39.53;;;21.95;;
83690;SDS011;73671;43.220;0.064;2023-12-28T00:03:43;37.25;;;21.08;;
83690;SDS011;73671;43.220;0.064;2023-12-28T00:06:09;37.78;;;20.52;;
83690;SDS011;73671;43.220;0.064;2023-12-28T00:08:35;36.25;;;20.55;;
83690;SDS011;73671;43.220;0.064;2023-12-28T00:11:00;34.45;;;20.33;;
83690;SDS011;73671;43.220;0.064;2023-12-28T00:13:26;34.95;;;20.13;;
83690;SDS011;73671;43.220;0.064;2023-12-28T00:15:51;31.88;;;19.05;;
83690;SDS011;73671;43.220;0.064;2023-12-28T00:18:16;33.33;;;18.77;;
83690;SDS011;73671;43.220;0.064;2023-12-28T00:20:42;37.70;;;20.25;;
83690;SDS011;73671;43.220;0.064;2023-12-28T00:23:07;36.33;;;20.05;;
83690;SDS011;73671;43.220;0.064;2023-12-28T00:25:32;42.05;;;21.08;;
83690;SDS011;73671;43.220;0.064;2023-12-28T00:27:58;39.33;;;21.00;;
83690;SDS011;73671;43.220;0.064;2023-12-28T00:30:23;34.25;;;19.30;;
83690;SDS011;73671;43.220;0.064;2023-12-28T00:32:48;33.97;;;18.20;;
83690;SDS011;73671;43.220;0.064;2023-12-28T00:35:14;33.55;;;18.58;;
83690;SDS011;73671;43.220;0.064;2023-12-28T00:37:39;31.85;;;19.48;;
83690;SDS011;73671;43.220;0.064;2023-12-28T00:40:05;33.70;;;19.08;;
83690;SDS011;73671;43.220;0.064;2023-12-28T00:42:31;34.13;;;18.23;;
83690;SDS011;73671;43.220;0.064;2023-12-28T00:44:56;35.40;;;19.02;;
83690;SDS011;73671;43.220;0.064;2023-12-28T00:47:21;33.78;;;18.55;;
83690;SDS011;73671;43.220;0.064;2023-12-28T00:49:47;31.50;;;18.13;;
83690;SDS011;73671;43.220;0.064;2023-12-28T00:52:12;36.78;;;19.83;;
83690;SDS011;73671;43.220;0.064;2023-12-28T00:54:37;36.58;;;20.65;;
83690;SDS011;73671;43.220;0.064;2023-12-28T00:57:03;40.25;;;20.73;;
83690;SDS011;73671;43.220;0.064;2023-12-28T00:59:29;39.90;;;21.83;;
83690;SDS011;73671;43.220;0.064;2023-12-28T01:01:57;36.63;;;19.88;;
83690;SDS011;73671;43.220;0.064;2023-12-28T01:04:23;34.72;;;20.17;;
83690;SDS011;73671;43.220;0.064;2023-12-28T01:06:48;36.13;;;19.67;;
83690;SDS011;73671;43.220;0.064;2023-12-28T01:09:14;34.15;;;18.40;;
83690;SDS011;73671;43.220;0.064;2023-12-28T01:11:40;32.78;;;19.73;;
83690;SDS011;73671;43.220;0.064;2023-12-28T01:14:05;36.08;;;19.65;;
83690;SDS011;73671;43.220;0.064;2023-12-28T01:16:31;37.80;;;20.42;;
83690;SDS011;73671;43.220;0.064;2023-12-28T01:18:56;37.40;;;19.20;;
83690;SDS011;73671;43.220;0.064;2023-12-28T01:21:21;32.15;;;17.92;;
83690;SDS011;73671;43.220;0.064;2023-12-28T01:23:47;34.00;;;18.63;;
83690;SDS011;73671;43.220;0.064;2023-12-28T01:26:13;33.50;;;17.63;;
83690;SDS011;73671;43.220;0.064;2023-12-28T01:28:39;31.80;;;17.45;;
83690;SDS011;73671;43.220;0.064;2023-12-28T01:31:04;29.65;;;17.23;;
83690;SDS011;73671;43.220;0.064;2023-12-28T01:33:30;29.30;;;17.05;;
83690;SDS011;73671;43.220;0.064;2023-12-28T01:35:55;30.15;;;15.60;;
83690;SDS011;73671;43.220;0.064;2023-12-28T01:38:21;27.70;;;15.35;;
83690;SDS011;73671;43.220;0.064;2023-12-28T01:40:46;30.40;;;16.88;;
83690;SDS011;73671;43.220;0.064;2023-12-28T01:43:11;26.80;;;15.45;;
83690;SDS011;73671;43.220;0.064;2023-12-28T01:45:37;23.52;;;14.55;;
83690;SDS011;73671;43.220;0.064;2023-12-28T01:48:02;26.98;;;14.75;;
83690;SDS011;73671;43.220;0.064;2023-12-28T01:50:28;24.88;;;13.73;;
83690;SDS011;73671;43.220;0.064;2023-12-28T01:52:56;23.73;;;14.02;;
83690;SDS011;73671;43.220;0.064;2023-12-28T01:55:24;24.35;;;14.00;;
83690;SDS011;73671;43.220;0.064;2023-12-28T01:57:51;25.30;;;14.95;;
83690;SDS011;73671;43.220;0.064;2023-12-28T02:00:16;24.52;;;14.07;;
83690;SDS011;73671;43.220;0.064;2023-12-28T02:02:42;26.13;;;14.40;;
83690;SDS011;73671;43.220;0.064;2023-12-28T02:05:10;23.67;;;14.55;;
83690;SDS011;73671;43.220;0.064;2023-12-28T02:07:37;23.48;;;13.48;;
83690;SDS011;73671;43.220;0.064;2023-12-28T02:10:03;24.95;;;13.85;;
83690;SDS011;73671;43.220;0.064;2023-12-28T02:12:28;27.58;;;13.85;;
83690;SDS011;73671;43.220;0.064;2023-12-28T02:14:54;23.95;;;13.30;;
83690;SDS011;73671;43.220;0.064;2023-12-28T02:17:21;23.77;;;13.60;;
83690;SDS011;73671;43.220;0.064;2023-12-28T02:19:51;24.55;;;13.70;;
83690;SDS011;73671;43.220;0.064;2023-12-28T02:22:19;20.80;;;12.60;;
83690;SDS011;73671;43.220;0.064;2023-12-28T02:27:31;23.17;;;13.52;;
83690;SDS011;73671;43.220;0.064;2023-12-28T02:30:18;20.48;;;12.75;;
83690;SDS011;73671;43.220;0.064;2023-12-28T02:38:19;19.00;;;11.43;;
83690;SDS011;73671;43.220;0.064;2023-12-28T02:40:48;17.95;;;12.02;;
83690;SDS011;73671;43.220;0.064;2023-12-28T02:43:17;19.23;;;12.45;;
83690;SDS011;73671;43.220;0.064;2023-12-28T02:45:42;22.17;;;12.57;;
83690;SDS011;73671;43.220;0.064;2023-12-28T02:48:08;19.10;;;12.27;;
83690;SDS011;73671;43.220;0.064;2023-12-28T02:50:33;23.85;;;12.38;;
83690;SDS011;73671;43.220;0.064;2023-12-28T02:52:59;17.27;;;10.90;;
83690;SDS011;73671;43.220;0.064;2023-12-28T02:55:25;19.70;;;12.25;;
83690;SDS011;73671;43.220;0.064;2023-12-28T02:57:51;18.42;;;11.98;;
83690;SDS011;73671;43.220;0.064;2023-12-28T03:00:19;20.90;;;12.10;;
83690;SDS011;73671;43.220;0.064;2023-12-28T03:02:45;18.15;;;11.98;;
83690;SDS011;73671;43.220;0.064;2023-12-28T03:05:11;17.25;;;11.00;;
83690;SDS011;73671;43.220;0.064;2023-12-28T03:07:36;18.17;;;12.05;;
83690;SDS011;73671;43.220;0.064;2023-12-28T03:10:02;23.33;;;11.98;;
83690;SDS011;73671;43.220;0.064;2023-12-28T03:12:28;18.98;;;10.63;;
83690;SDS011;73671;43.220;0.064;2023-12-28T03:14:54;16.98;;;9.13;;
83690;SDS011;73671;43.220;0.064;2023-12-28T03:17:19;15.30;;;8.98;;
83690;SDS011;73671;43.220;0.064;2023-12-28T03:19:45;15.20;;;9.82;;
83690;SDS011;73671;43.220;0.064;2023-12-28T03:22:10;16.98;;;8.85;;
83690;SDS011;73671;43.220;0.064;2023-12-28T03:24:38;12.10;;;7.88;;
83690;SDS011;73671;43.220;0.064;2023-12-28T03:27:04;15.73;;;9.18;;
83690;SDS011;73671;43.220;0.064;2023-12-28T03:29:30;15.98;;;8.88;;
83690;SDS011;73671;43.220;0.064;2023-12-28T03:31:56;14.85;;;8.68;;
83690;SDS011;73671;43.220;0.064;2023-12-28T03:34:22;14.02;;;9.02;;
83690;SDS011;73671;43.220;0.064;2023-12-28T03:36:48;12.70;;;7.82;;
83690;SDS011;73671;43.220;0.064;2023-12-28T03:39:14;12.93;;;7.80;;
83690;SDS011;73671;43.220;0.064;2023-12-28T03:41:39;14.55;;;8.50;;
83690;SDS011;73671;43.220;0.064;2023-12-28T03:44:04;15.05;;;8.00;;
83690;SDS011;73671;43.220;0.064;2023-12-28T03:46:30;13.20;;;8.00;;
83690;SDS011;73671;43.220;0.064;2023-12-28T03:48:55;12.98;;;7.72;;
83690;SDS011;73671;43.220;0.064;2023-12-28T03:51:20;14.40;;;7.70;;
83690;SDS011;73671;43.220;0.064;2023-12-28T03:53:46;14.32;;;7.75;;
83690;SDS011;73671;43.220;0.064;2023-12-28T03:56:25;12.65;;;7.70;;
83690;SDS011;73671;43.220;0.064;2023-12-28T03:58:51;16.17;;;7.60;;
83690;SDS011;73671;43.220;0.064;2023-12-28T04:01:18;11.52;;;7.57;;
83690;SDS011;73671;43.220;0.064;2023-12-28T04:03:45;11.90;;;7.60;;
83690;SDS011;73671;43.220;0.064;2023-12-28T04:06:10;11.63;;;7.63;;
83690;SDS011;73671;43.220;0.064;2023-12-28T04:08:37;11.55;;;7.45;;
83690;SDS011;73671;43.220;0.064;2023-12-28T04:11:04;12.77;;;8.27;;
83690;SDS011;73671;43.220;0.064;2023-12-28T04:13:29;11.90;;;7.72;;
83690;SDS011;73671;43.220;0.064;2023-12-28T04:15:54;12.20;;;7.72;;
83690;SDS011;73671;43.220;0.064;2023-12-28T04:18:20;13.73;;;7.88;;
83690;SDS011;73671;43.220;0.064;2023-12-28T04:20:45;13.70;;;8.25;;
83690;SDS011;73671;43.220;0.064;2023-12-28T04:23:11;13.23;;;8.32;;
83690;SDS011;73671;43.220;0.064;2023-12-28T04:25:36;12.70;;;7.70;;
83690;SDS011;73671;43.220;0.064;2023-12-28T04:28:02;12.80;;;7.68;;
83690;SDS011;73671;43.220;0.064;2023-12-28T04:30:27;14.30;;;7.90;;
83690;SDS011;73671;43.220;0.064;2023-12-28T04:32:53;16.60;;;7.97;;
83690;SDS011;73671;43.220;0.064;2023-12-28T04:35:18;11.45;;;6.65;;
83690;SDS011;73671;43.220;0.064;2023-12-28T04:37:43;15.77;;;8.95;;
83690;SDS011;73671;43.220;0.064;2023-12-28T04:40:10;14.00;;;8.63;;
83690;SDS011;73671;43.220;0.064;2023-12-28T04:42:35;14.23;;;8.90;;
83690;SDS011;73671;43.220;0.064;2023-12-28T04:45:00;8.90;;;6.82;;
83690;SDS011;73671;43.220;0.064;2023-12-28T04:47:26;9.30;;;6.65;;
83690;SDS011;73671;43.220;0.064;2023-12-28T04:49:51;11.32;;;6.80;;
83690;SDS011;73671;43.220;0.064;2023-12-28T04:52:16;5.88;;;4.72;;
83690;SDS011;73671;43.220;0.064;2023-12-28T04:54:42;8.55;;;5.70;;
83690;SDS011;73671;43.220;0.064;2023-12-28T04:57:08;8.35;;;5.15;;
83690;SDS011;73671;43.220;0.064;2023-12-28T04:59:37;8.10;;;5.57;;
83690;SDS011;73671;43.220;0.064;2023-12-28T05:02:05;7.00;;;4.97;;
83690;SDS011;73671;43.220;0.064;2023-12-28T05:04:31;8.38;;;5.10;;
83690;SDS011;73671;43.220;0.064;2023-12-28T05:06:56;9.40;;;5.82;;
83690;SDS011;73671;43.220;0.064;2023-12-28T05:09:21;9.77;;;5.97;;
83690;SDS011;73671;43.220;0.064;2023-12-28T05:11:47;9.80;;;6.63;;
83690;SDS011;73671;43.220;0.064;2023-12-28T05:14:12;11.13;;;6.75;;
83690;SDS011;73671;43.220;0.064;2023-12-28T05:16:37;23.02;;;12.98;;
83690;SDS011;73671;43.220;0.064;2023-12-28T05:19:03;22.13;;;13.60;;
83690;SDS011;73671;43.220;0.064;2023-12-28T05:21:28;20.58;;;12.57;;
83690;SDS011;73671;43.220;0.064;2023-12-28T05:23:54;26.17;;;15.00;;
83690;SDS011;73671;43.220;0.064;2023-12-28T05:26:19;17.98;;;13.38;;
83690;SDS011;73671;43.220;0.064;2023-12-28T05:28:45;21.45;;;12.77;;
83690;SDS011;73671;43.220;0.064;2023-12-28T05:31:10;25.25;;;16.23;;
83690;SDS011;73671;43.220;0.064;2023-12-28T05:33:35;24.42;;;13.45;;
83690;SDS011;73671;43.220;0.064;2023-12-28T05:36:01;22.92;;;13.48;;
83690;SDS011;73671;43.220;0.064;2023-12-28T05:38:26;46.08;;;20.27;;
83690;SDS011;73671;43.220;0.064;2023-12-28T05:40:52;24.20;;;13.48;;
83690;SDS011;73671;43.220;0.064;2023-12-28T05:43:17;31.48;;;16.38;;
83690;SDS011;73671;43.220;0.064;2023-12-28T05:45:42;16.30;;;9.75;;
83690;SDS011;73671;43.220;0.064;2023-12-28T05:48:08;8.65;;;6.45;;
83690;SDS011;73671;43.220;0.064;2023-12-28T05:50:33;8.50;;;4.90;;
83690;SDS011;73671;43.220;0.064;2023-12-28T05:52:59;5.97;;;4.90;;
83690;SDS011;73671;43.220;0.064;2023-12-28T05:55:24;8.40;;;4.82;;
83690;SDS011;73671;43.220;0.064;2023-12-28T05:57:50;5.70;;;4.40;;
83690;SDS011;73671;43.220;0.064;2023-12-28T06:00:15;6.07;;;4.40;;
83690;SDS011;73671;43.220;0.064;2023-12-28T06:02:41;6.38;;;4.60;;
83690;SDS011;73671;43.220;0.064;2023-12-28T06:05:06;5.32;;;4.25;;
83690;SDS011;73671;43.220;0.064;2023-12-28T06:07:32;6.70;;;4.47;;
83690;SDS011;73671;43.220;0.064;2023-12-28T06:09:58;5.50;;;4.20;;
83690;SDS011;73671;43.220;0.064;2023-12-28T06:12:23;7.75;;;4.88;;
83690;SDS011;73671;43.220;0.064;2023-12-28T06:14:49;31.90;;;18.42;;
83690;SDS011;73671;43.220;0.064;2023-12-28T06:17:15;14.88;;;9.77;;
83690;SDS011;73671;43.220;0.064;2023-12-28T06:19:40;20.10;;;11.70;;
83690;SDS011;73671;43.220;0.064;2023-12-28T06:22:06;14.48;;;9.68;;
83690;SDS011;73671;43.220;0.064;2023-12-28T06:24:31;9.23;;;6.50;;
83690;SDS011;73671;43.220;0.064;2023-12-28T06:26:57;7.43;;;5.70;;
83690;SDS011;73671;43.220;0.064;2023-12-28T06:29:22;9.95;;;6.90;;
83690;SDS011;73671;43.220;0.064;2023-12-28T06:31:47;9.27;;;6.38;;
83690;SDS011;73671;43.220;0.064;2023-12-28T06:34:13;10.98;;;7.75;;
83690;SDS011;73671;43.220;0.064;2023-12-28T06:36:38;11.68;;;6.60;;
83690;SDS011;73671;43.220;0.064;2023-12-28T06:39:04;7.93;;;5.65;;
83690;SDS011;73671;43.220;0.064;2023-12-28T06:41:29;8.38;;;5.57;;
83690;SDS011;73671;43.220;0.064;2023-12-28T06:43:54;8.40;;;5.10;;
83690;SDS011;73671;43.220;0.064;2023-12-28T06:46:20;6.88;;;5.20;;
83690;SDS011;73671;43.220;0.064;2023-12-28T06:48:46;7.55;;;5.60;;
83690;SDS011;73671;43.220;0.064;2023-12-28T06:51:18;6.47;;;5.07;;
83690;SDS011;73671;43.220;0.064;2023-12-28T06:53:44;9.35;;;5.70;;
83690;SDS011;73671;43.220;0.064;2023-12-28T06:56:10;8.52;;;6.07;;
83690;SDS011;73671;43.220;0.064;2023-12-28T06:58:36;8.05;;;6.32;;
83690;SDS011;73671;43.220;0.064;2023-12-28T07:01:04;11.43;;;7.82;;
83690;SDS011;73671;43.220;0.064;2023-12-28T07:03:29;13.45;;;9.02;;
83690;SDS011;73671;43.220;0.064;2023-12-28T07:06:01;14.10;;;9.27;;
83690;SDS011;73671;43.220;0.064;2023-12-28T07:08:27;12.57;;;7.78;;
83690;SDS011;73671;43.220;0.064;2023-12-28T07:10:53;12.10;;;8.30;;
83690;SDS011;73671;43.220;0.064;2023-12-28T07:13:19;23.05;;;8.88;;
83690;SDS011;73671;43.220;0.064;2023-12-28T07:15:44;15.68;;;10.23;;
83690;SDS011;73671;43.220;0.064;2023-12-28T07:18:09;11.85;;;8.02;;
83690;SDS011;73671;43.220;0.064;2023-12-28T07:20:35;8.20;;;6.28;;
83690;SDS011;73671;43.220;0.064;2023-12-28T07:23:00;8.75;;;6.32;;
83690;SDS011;73671;43.220;0.064;2023-12-28T07:25:26;9.20;;;6.25;;
83690;SDS011;73671;43.220;0.064;2023-12-28T07:27:51;9.82;;;6.35;;
83690;SDS011;73671;43.220;0.064;2023-12-28T07:30:16;9.85;;;6.40;;
83690;SDS011;73671;43.220;0.064;2023-12-28T07:32:43;8.60;;;6.30;;
83690;SDS011;73671;43.220;0.064;2023-12-28T07:35:09;8.10;;;6.05;;
83690;SDS011;73671;43.220;0.064;2023-12-28T07:37:35;17.92;;;7.07;;
83690;SDS011;73671;43.220;0.064;2023-12-28T07:40:01;17.98;;;8.75;;
83690;SDS011;73671;43.220;0.064;2023-12-28T07:42:28;14.30;;;7.72;;
83690;SDS011;73671;43.220;0.064;2023-12-28T07:44:53;13.82;;;8.18;;
83690;SDS011;73671;43.220;0.064;2023-12-28T07:47:19;24.77;;;9.30;;
83690;SDS011;73671;43.220;0.064;2023-12-28T07:49:44;23.05;;;10.00;;
83690;SDS011;73671;43.220;0.064;2023-12-28T07:52:10;15.75;;;8.70;;
83690;SDS011;73671;43.220;0.064;2023-12-28T07:54:36;9.00;;;5.55;;
83690;SDS011;73671;43.220;0.064;2023-12-28T07:57:01;9.60;;;6.05;;
83690;SDS011;73671;43.220;0.064;2023-12-28T07:59:26;17.17;;;8.93;;
83690;SDS011;73671;43.220;0.064;2023-12-28T08:01:52;58.10;;;27.23;;
83690;SDS011;73671;43.220;0.064;2023-12-28T08:04:17;31.63;;;16.10;;
83690;SDS011;73671;43.220;0.064;2023-12-28T08:06:43;29.75;;;15.45;;
83690;SDS011;73671;43.220;0.064;2023-12-28T08:09:08;28.90;;;15.88;;
83690;SDS011;73671;43.220;0.064;2023-12-28T08:11:33;25.70;;;13.20;;
83690;SDS011;73671;43.220;0.064;2023-12-28T08:13:59;19.10;;;11.85;;
83690;SDS011;73671;43.220;0.064;2023-12-28T08:16:24;21.25;;;12.32;;
83690;SDS011;73671;43.220;0.064;2023-12-28T08:18:51;118.22;;;31.95;;
83690;SDS011;73671;43.220;0.064;2023-12-28T08:21:16;54.45;;;21.25;;
83690;SDS011;73671;43.220;0.064;2023-12-28T08:23:42;22.23;;;12.43;;
83690;SDS011;73671;43.220;0.064;2023-12-28T08:26:07;17.65;;;10.45;;
83690;SDS011;73671;43.220;0.064;2023-12-28T08:28:33;11.50;;;7.28;;
83690;SDS011;73671;43.220;0.064;2023-12-28T08:30:58;12.73;;;8.65;;
83690;SDS011;73671;43.220;0.064;2023-12-28T08:33:24;14.68;;;8.13;;
83690;SDS011;73671;43.220;0.064;2023-12-28T08:35:50;16.20;;;7.88;;
83690;SDS011;73671;43.220;0.064;2023-12-28T08:38:16;10.77;;;6.78;;
83690;SDS011;73671;43.220;0.064;2023-12-28T08:40:41;11.73;;;7.13;;
83690;SDS011;73671;43.220;0.064;2023-12-28T08:43:06;10.68;;;6.55;;
83690;SDS011;73671;43.220;0.064;2023-12-28T08:45:32;12.48;;;6.00;;
83690;SDS011;73671;43.220;0.064;2023-12-28T08:47:59;8.80;;;4.95;;
83690;SDS011;73671;43.220;0.064;2023-12-28T08:50:24;12.77;;;6.10;;
83690;SDS011;73671;43.220;0.064;2023-12-28T08:52:50;12.05;;;6.05;;
83690;SDS011;73671;43.220;0.064;2023-12-28T08:55:15;10.85;;;5.97;;
83690;SDS011;73671;43.220;0.064;2023-12-28T08:57:41;11.80;;;6.85;;
83690;SDS011;73671;43.220;0.064;2023-12-28T09:00:06;9.90;;;6.38;;
83690;SDS011;73671;43.220;0.064;2023-12-28T09:02:32;12.00;;;6.78;;
83690;SDS011;73671;43.220;0.064;2023-12-28T09:04:58;11.80;;;6.43;;
83690;SDS011;73671;43.220;0.064;2023-12-28T09:07:23;12.68;;;7.13;;
83690;SDS011;73671;43.220;0.064;2023-12-28T09:09:49;11.18;;;7.03;;
83690;SDS011;73671;43.220;0.064;2023-12-28T09:12:14;17.42;;;8.05;;
83690;SDS011;73671;43.220;0.064;2023-12-28T09:14:40;14.57;;;8.55;;
83690;SDS011;73671;43.220;0.064;2023-12-28T09:17:05;14.95;;;9.35;;
83690;SDS011;73671;43.220;0.064;2023-12-28T09:19:31;15.43;;;9.35;;
83690;SDS011;73671;43.220;0.064;2023-12-28T09:21:56;16.77;;;10.10;;
83690;SDS011;73671;43.220;0.064;2023-12-28T09:24:21;13.35;;;9.05;;
83690;SDS011;73671;43.220;0.064;2023-12-28T09:26:47;18.85;;;10.00;;
83690;SDS011;73671;43.220;0.064;2023-12-28T09:29:13;20.85;;;11.27;;
83690;SDS011;73671;43.220;0.064;2023-12-28T09:31:39;26.77;;;13.02;;
83690;SDS011;73671;43.220;0.064;2023-12-28T09:34:04;23.88;;;12.13;;
83690;SDS011;73671;43.220;0.064;2023-12-28T09:36:30;20.48;;;12.43;;
83690;SDS011;73671;43.220;0.064;2023-12-28T09:38:56;36.42;;;20.35;;
83690;SDS011;73671;43.220;0.064;2023-12-28T09:41:21;26.55;;;16.85;;
83690;SDS011;73671;43.220;0.064;2023-12-28T09:43:54;28.50;;;17.45;;
83690;SDS011;73671;43.220;0.064;2023-12-28T09:46:30;59.90;;;35.00;;
83690;SDS011;73671;43.220;0.064;2023-12-28T09:48:56;35.35;;;20.27;;
83690;SDS011;73671;43.220;0.064;2023-12-28T09:51:22;35.83;;;19.45;;
83690;SDS011;73671;43.220;0.064;2023-12-28T09:53:48;36.05;;;20.95;;
83690;SDS011;73671;43.220;0.064;2023-12-28T09:56:16;51.33;;;26.02;;
83690;SDS011;73671;43.220;0.064;2023-12-28T09:58:43;42.22;;;23.55;;
83690;SDS011;73671;43.220;0.064;2023-12-28T10:01:11;45.47;;;24.25;;
83690;SDS011;73671;43.220;0.064;2023-12-28T10:03:39;43.55;;;24.65;;
83690;SDS011;73671;43.220;0.064;2023-12-28T10:06:05;63.72;;;30.33;;
83690;SDS011;73671;43.220;0.064;2023-12-28T10:08:30;48.65;;;27.73;;
83690;SDS011;73671;43.220;0.064;2023-12-28T10:10:56;41.88;;;23.33;;
83690;SDS011;73671;43.220;0.064;2023-12-28T10:13:23;36.40;;;18.70;;
83690;SDS011;73671;43.220;0.064;2023-12-28T10:15:50;45.15;;;24.00;;
83690;SDS011;73671;43.220;0.064;2023-12-28T10:18:17;44.75;;;22.77;;
83690;SDS011;73671;43.220;0.064;2023-12-28T10:20:48;40.80;;;21.35;;
83690;SDS011;73671;43.220;0.064;2023-12-28T10:23:17;47.83;;;25.77;;
83690;SDS011;73671;43.220;0.064;2023-12-28T10:25:43;49.80;;;25.95;;
83690;SDS011;73671;43.220;0.064;2023-12-28T10:28:09;45.92;;;24.90;;
83690;SDS011;73671;43.220;0.064;2023-12-28T10:30:37;38.78;;;21.20;;
83690;SDS011;73671;43.220;0.064;2023-12-28T10:33:06;29.30;;;18.00;;
83690;SDS011;73671;43.220;0.064;2023-12-28T10:35:32;20.63;;;12.75;;
83690;SDS011;73671;43.220;0.064;2023-12-28T10:37:59;18.58;;;11.40;;
83690;SDS011;73671;43.220;0.064;2023-12-28T10:40:25;18.25;;;10.40;;
83690;SDS011;73671;43.220;0.064;2023-12-28T10:42:55;16.27;;;10.70;;
83690;SDS011;73671;43.220;0.064;2023-12-28T10:45:28;15.65;;;8.05;;
83690;SDS011;73671;43.220;0.064;2023-12-28T10:50:21;16.77;;;11.43;;
83690;SDS011;73671;43.220;0.064;2023-12-28T10:52:51;16.00;;;10.15;;
83690;SDS011;73671;43.220;0.064;2023-12-28T11:00:30;25.50;;;12.63;;
83690;SDS011;73671;43.220;0.064;2023-12-28T11:03:02;22.88;;;13.77;;
83690;SDS011;73671;43.220;0.064;2023-12-28T11:05:31;25.08;;;15.23;;
83690;SDS011;73671;43.220;0.064;2023-12-28T11:07:58;27.70;;;16.13;;
83690;SDS011;73671;43.220;0.064;2023-12-28T11:10:25;36.40;;;16.20;;
83690;SDS011;73671;43.220;0.064;2023-12-28T11:12:54;22.48;;;15.00;;
83690;SDS011;73671;43.220;0.064;2023-12-28T11:15:21;26.92;;;14.95;;
83690;SDS011;73671;43.220;0.064;2023-12-28T11:17:48;22.42;;;13.32;;
83690;SDS011;73671;43.220;0.064;2023-12-28T11:20:14;25.50;;;13.90;;
83690;SDS011;73671;43.220;0.064;2023-12-28T11:22:40;31.75;;;14.27;;
83690;SDS011;73671;43.220;0.064;2023-12-28T11:25:06;33.55;;;17.33;;
83690;SDS011;73671;43.220;0.064;2023-12-28T11:27:40;52.40;;;18.90;;
83690;SDS011;73671;43.220;0.064;2023-12-28T11:30:06;33.78;;;14.85;;
83690;SDS011;73671;43.220;0.064;2023-12-28T11:32:32;25.95;;;11.98;;
83690;SDS011;73671;43.220;0.064;2023-12-28T11:35:01;22.08;;;11.63;;
83690;SDS011;73671;43.220;0.064;2023-12-28T11:37:27;19.08;;;9.38;;
83690;SDS011;73671;43.220;0.064;2023-12-28T11:39:54;12.55;;;6.90;;
83690;SDS011;73671;43.220;0.064;2023-12-28T11:42:22;10.30;;;6.18;;
83690;SDS011;73671;43.220;0.064;2023-12-28T11:44:53;11.10;;;6.85;;
83690;SDS011;73671;43.220;0.064;2023-12-28T11:47:25;14.50;;;6.82;;
83690;SDS011;73671;43.220;0.064;2023-12-28T11:49:54;11.48;;;6.70;;
83690;SDS011;73671;43.220;0.064;2023-12-28T11:52:26;10.60;;;6.38;;
83690;SDS011;73671;43.220;0.064;2023-12-28T11:54:53;12.10;;;5.82;;
83690;SDS011;73671;43.220;0.064;2023-12-28T11:57:19;7.95;;;5.28;;
83690;SDS011;73671;43.220;0.064;2023-12-28T11:59:44;11.63;;;5.97;;
83690;SDS011;73671;43.220;0.064;2023-12-28T12:02:10;8.30;;;5.47;;
83690;SDS011;73671;43.220;0.064;2023-12-28T12:04:36;11.18;;;5.20;;
83690;SDS011;73671;43.220;0.064;2023-12-28T12:07:02;9.10;;;4.90;;
83690;SDS011;73671;43.220;0.064;2023-12-28T12:09:28;10.18;;;5.47;;
83690;SDS011;73671;43.220;0.064;2023-12-28T12:11:57;13.02;;;5.57;;
83690;SDS011;73671;43.220;0.064;2023-12-28T12:14:23;11.80;;;5.32;;
83690;SDS011;73671;43.220;0.064;2023-12-28T12:16:48;9.07;;;5.43;;
83690;SDS011;73671;43.220;0.064;2023-12-28T12:19:14;8.93;;;5.57;;
83690;SDS011;73671;43.220;0.064;2023-12-28T12:21:40;10.63;;;5.70;;
83690;SDS011;73671;43.220;0.064;2023-12-28T12:24:05;7.57;;;5.07;;
83690;SDS011;73671;43.220;0.064;2023-12-28T12:26:31;12.75;;;4.70;;
83690;SDS011;73671;43.220;0.064;2023-12-28T12:28:57;13.75;;;5.57;;
83690;SDS011;73671;43.220;0.064;2023-12-28T12:31:23;8.90;;;5.95;;
83690;SDS011;73671;43.220;0.064;2023-12-28T12:33:49;9.15;;;5.88;;
83690;SDS011;73671;43.220;0.064;2023-12-28T12:36:15;8.63;;;5.47;;
83690;SDS011;73671;43.220;0.064;2023-12-28T12:38:41;8.95;;;6.15;;
83690;SDS011;73671;43.220;0.064;2023-12-28T12:41:07;9.10;;;5.30;;
83690;SDS011;73671;43.220;0.064;2023-12-28T12:43:33;10.82;;;5.93;;
83690;SDS011;73671;43.220;0.064;2023-12-28T12:45:59;10.93;;;6.78;;
83690;SDS011;73671;43.220;0.064;2023-12-28T12:48:25;13.02;;;8.70;;
83690;SDS011;73671;43.220;0.064;2023-12-28T12:50:51;16.00;;;8.48;;
83690;SDS011;73671;43.220;0.064;2023-12-28T12:53:16;14.93;;;8.52;;
83690;SDS011;73671;43.220;0.064;2023-12-28T12:55:41;15.35;;;8.10;;
83690;SDS011;73671;43.220;0.064;2023-12-28T12:58:08;23.23;;;12.23;;
83690;SDS011;73671;43.220;0.064;2023-12-28T13:00:34;14.40;;;9.65;;
83690;SDS011;73671;43.220;0.064;2023-12-28T13:03:00;16.38;;;8.48;;
83690;SDS011;73671;43.220;0.064;2023-12-28T13:05:26;17.63;;;10.30;;
83690;SDS011;73671;43.220;0.064;2023-12-28T13:07:51;23.42;;;10.65;;
83690;SDS011;73671;43.220;0.064;2023-12-28T13:10:17;13.43;;;8.93;;
83690;SDS011;73671;43.220;0.064;2023-12-28T13:12:42;13.38;;;8.73;;
83690;SDS011;73671;43.220;0.064;2023-12-28T13:15:08;14.68;;;7.47;;
83690;SDS011;73671;43.220;0.064;2023-12-28T13:17:35;12.52;;;8.20;;
83690;SDS011;73671;43.220;0.064;2023-12-28T13:20:04;12.57;;;8.07;;
83690;SDS011;73671;43.220;0.064;2023-12-28T13:22:33;10.32;;;5.28;;
83690;SDS011;73671;43.220;0.064;2023-12-28T13:24:59;13.18;;;8.70;;
83690;SDS011;73671;43.220;0.064;2023-12-28T13:27:24;14.85;;;7.70;;
83690;SDS011;73671;43.220;0.064;2023-12-28T13:29:49;10.88;;;6.53;;
83690;SDS011;73671;43.220;0.064;2023-12-28T13:32:15;10.88;;;5.47;;
83690;SDS011;73671;43.220;0.064;2023-12-28T13:34:40;6.00;;;3.58;;
83690;SDS011;73671;43.220;0.064;2023-12-28T13:37:06;5.10;;;3.38;;
83690;SDS011;73671;43.220;0.064;2023-12-28T13:39:31;8.10;;;4.18;;
83690;SDS011;73671;43.220;0.064;2023-12-28T13:41:57;9.77;;;4.25;;
83690;SDS011;73671;43.220;0.064;2023-12-28T13:44:23;8.15;;;3.80;;
83690;SDS011;73671;43.220;0.064;2023-12-28T13:46:48;5.13;;;3.03;;
83690;SDS011;73671;43.220;0.064;2023-12-28T13:49:14;7.03;;;3.95;;
83690;SDS011;73671;43.220;0.064;2023-12-28T13:51:39;6.90;;;4.25;;
83690;SDS011;73671;43.220;0.064;2023-12-28T13:54:05;8.30;;;5.10;;
83690;SDS011;73671;43.220;0.064;2023-12-28T13:56:31;10.43;;;5.40;;
83690;SDS011;73671;43.220;0.064;2023-12-28T13:58:56;8.52;;;5.25;;
83690;SDS011;73671;43.220;0.064;2023-12-28T14:01:22;11.05;;;4.93;;
83690;SDS011;73671;43.220;0.064;2023-12-28T14:03:47;12.68;;;4.60;;
83690;SDS011;73671;43.220;0.064;2023-12-28T14:06:16;15.93;;;4.35;;
83690;SDS011;73671;43.220;0.064;2023-12-28T14:08:41;12.20;;;3.88;;
83690;SDS011;73671;43.220;0.064;2023-12-28T14:11:07;7.38;;;3.90;;
83690;SDS011;73671;43.220;0.064;2023-12-28T14:13:32;7.90;;;3.65;;
83690;SDS011;73671;43.220;0.064;2023-12-28T14:16:00;6.35;;;3.80;;
83690;SDS011;73671;43.220;0.064;2023-12-28T14:18:25;11.90;;;5.85;;
83690;SDS011;73671;43.220;0.064;2023-12-28T14:20:50;11.77;;;5.38;;
83690;SDS011;73671;43.220;0.064;2023-12-28T14:23:16;11.32;;;5.78;;
83690;SDS011;73671;43.220;0.064;2023-12-28T14:25:42;9.02;;;6.35;;
83690;SDS011;73671;43.220;0.064;2023-12-28T14:28:08;10.45;;;6.60;;
83690;SDS011;73671;43.220;0.064;2023-12-28T14:30:35;10.73;;;6.95;;
83690;SDS011;73671;43.220;0.064;2023-12-28T14:33:00;9.75;;;6.57;;
83690;SDS011;73671;43.220;0.064;2023-12-28T14:35:26;9.48;;;6.20;;
83690;SDS011;73671;43.220;0.064;2023-12-28T14:37:51;14.00;;;8.65;;
83690;SDS011;73671;43.220;0.064;2023-12-28T14:40:17;12.02;;;6.93;;